B18 weather

Alton Bay Seaplane Base
Alton Bay, New Hampshire, United States

Public forecast

Using degrees Fahrenheit for public forecast. Weather courtesy of forecast.io.

Closest aviation weather report (METAR) to Alton Bay Seaplane Base

Closest report is Laconia Municipal Airport, 9.8 nm (18.1 km) NW. Retrieved 2019/10/19 20:56 UTC (19 minutes ago):

KLCI 192056Z AUTO 30005KT 10SM CLR 13/01 A2998 RMK AO2 SLP153 T01280006 53002

Closest aviation forecast (TAF) to Alton Bay Seaplane Base

Closest forecast is Concord Municipal Airport, 20.2 nm (37.3 km) SW. Retrieved 2019/10/19 18:42 UTC (3 hours ago):

TAF KCON 191739Z 1918/2018 32008KT P6SM SKC FM192300 VRB03KT P6SM SCT250